Time;durP1;ratioP1;P1;durP2;ratioP2;P2;SDS_P1;SDS_P2;PMS_P1;PMS_P2;Temp;Humidity;BMP_temperature;BMP_pressure;BME280_temperature;BME280_humidity;BME280_pressure;Samples;Min_cycle;Max_cycle;Signal;HPM_P1;HPM_P2
2022/05/31 00:00:25;;;;;;;3.78;2.88;;;7.60;99.90;;;;;;5076250;28;20037;-61
2022/05/31 00:03:17;;;;;;;5.25;3.15;;;7.60;99.90;;;;;;5107725;22;21603;-64
2022/05/31 00:09:46;;;;;;;2.90;2.03;;;7.60;99.90;;;;;;5025011;28;20046;-64
2022/05/31 00:12:13;;;;;;;;;;;7.60;99.90;;;;;;5097816;28;20488;-64
2022/05/31 00:14:40;;;;;;;2.45;2.05;;;7.60;99.90;;;;;;5108924;28;19919;-64
2022/05/31 00:17:07;;;;;;;2.67;1.80;;;7.50;99.90;;;;;;5102767;28;20043;-64
2022/05/31 00:19:34;;;;;;;4.00;2.63;;;7.50;99.90;;;;;;5102417;28;20044;-65
2022/05/31 00:22:22;;;;;;;4.13;2.13;;;7.50;99.90;;;;;;5108403;28;20442;-64
2022/05/31 00:24:50;;;;;;;2.90;2.22;;;7.60;99.90;;;;;;5110933;28;20043;-63
2022/05/31 00:27:20;;;;;;;2.95;2.42;;;7.60;99.90;;;;;;5104134;28;20488;-64
2022/05/31 00:29:47;;;;;;;4.10;2.35;;;7.60;99.90;;;;;;5086367;28;20512;-64
2022/05/31 00:32:15;;;;;;;;;;;7.60;99.90;;;;;;5109038;28;20050;-64
2022/05/31 00:34:45;;;;;;;3.58;2.40;;;7.70;99.90;;;;;;5101259;28;19950;-64
2022/05/31 00:37:13;;;;;;;3.08;2.65;;;7.70;99.90;;;;;;5103873;28;20043;-64
2022/05/31 00:39:40;;;;;;;;;;;7.60;99.90;;;;;;5093402;28;20044;-64
2022/05/31 00:42:15;;;;;;;3.58;2.28;;;7.70;99.90;;;;;;5092692;28;19920;-64
2022/05/31 00:44:41;;;;;;;3.58;2.70;;;7.60;99.90;;;;;;5107074;28;20086;-64
2022/05/31 00:47:26;;;;;;;5.88;3.20;;;7.60;99.90;;;;;;5088304;28;20036;-64
2022/05/31 00:50:18;;;;;;;5.30;3.38;;;7.60;99.90;;;;;;5093664;28;20635;-64
2022/05/31 00:52:49;;;;;;;4.25;2.90;;;7.60;99.90;;;;;;5078240;28;20036;-64
2022/05/31 00:55:33;;;;;;;5.78;3.20;;;7.60;99.90;;;;;;5100369;28;20088;-64
2022/05/31 00:58:00;;;;;;;3.40;2.45;;;7.60;99.90;;;;;;5101853;28;20038;-64
2022/05/31 01:00:27;;;;;;;5.28;2.70;;;7.60;99.90;;;;;;5081060;28;20036;-64
2022/05/31 01:02:54;;;;;;;3.67;2.75;;;7.70;99.90;;;;;;5085088;28;20040;-64
2022/05/31 01:05:21;;;;;;;4.13;2.70;;;7.70;99.90;;;;;;5100329;28;20036;-64
2022/05/31 01:07:48;;;;;;;4.90;3.53;;;7.70;99.90;;;;;;5085736;28;20048;-64
2022/05/31 01:10:15;;;;;;;3.80;3.22;;;7.70;99.90;;;;;;5080912;28;20050;-64
2022/05/31 01:13:16;;;;;;;;;;;7.80;99.90;;;;;;5097770;28;20065;-64
2022/05/31 01:16:09;;;;;;;5.68;3.28;;;7.80;99.90;;;;;;5092982;28;19935;-64
2022/05/31 01:18:55;;;;;;;7.55;3.17;;;7.80;99.90;;;;;;5108116;28;20058;-64
2022/05/31 01:21:57;;;;;;;4.18;2.95;;;7.80;99.90;;;;;;5091951;28;20051;-64
2022/05/31 01:24:59;;;;;;;4.53;2.97;;;7.80;99.90;;;;;;5084064;28;20448;-64
2022/05/31 01:27:46;;;;;;;6.72;3.40;;;7.80;99.90;;;;;;5110436;28;20500;-64
2022/05/31 01:30:14;;;;;;;6.15;3.28;;;7.80;99.90;;;;;;5109924;28;20514;-64
2022/05/31 01:33:00;;;;;;;4.93;2.67;;;7.80;99.90;;;;;;5097325;28;20044;-64
2022/05/31 01:35:31;;;;;;;5.03;3.05;;;7.70;99.90;;;;;;5111104;28;20561;-64
2022/05/31 01:38:13;;;;;;;4.10;2.88;;;7.70;99.90;;;;;;5093327;28;20126;-63
2022/05/31 01:41:08;;;;;;;4.03;3.08;;;7.70;99.90;;;;;;5092161;28;20522;-64
2022/05/31 01:43:35;;;;;;;4.95;3.05;;;7.70;99.90;;;;;;5101722;28;20040;-63
2022/05/31 01:46:08;;;;;;;3.97;3.30;;;7.70;99.90;;;;;;5110123;28;20053;-64
2022/05/31 01:48:37;;;;;;;3.50;3.08;;;7.70;99.90;;;;;;5110285;28;20093;-64
2022/05/31 01:51:05;;;;;;;4.28;3.00;;;7.70;99.90;;;;;;5109783;28;20024;-64
2022/05/31 01:53:33;;;;;;;3.80;2.78;;;7.70;99.90;;;;;;5111428;28;20043;-64
2022/05/31 01:56:00;;;;;;;4.45;3.22;;;7.60;99.90;;;;;;5110120;28;20039;-64
2022/05/31 01:58:29;;;;;;;;;;;7.60;99.90;;;;;;5106602;28;20416;-64
2022/05/31 02:00:56;;;;;;;4.30;3.28;;;7.60;99.90;;;;;;5083906;28;19919;-64
2022/05/31 02:03:23;;;;;;;6.20;2.92;;;7.60;99.90;;;;;;5111352;28;20050;-63
2022/05/31 02:05:52;;;;;;;4.55;3.22;;;7.60;99.90;;;;;;5109560;28;20047;-64
2022/05/31 02:08:24;;;;;;;3.97;3.47;;;7.70;99.90;;;;;;5086745;28;20064;-64
2022/05/31 02:10:51;;;;;;;3.60;2.88;;;7.70;99.90;;;;;;5107699;28;20051;-64
2022/05/31 02:13:18;;;;;;;4.35;3.20;;;7.70;99.90;;;;;;5109787;28;20088;-64
2022/05/31 02:15:54;;;;;;;6.03;3.25;;;7.60;99.90;;;;;;5110055;28;20051;-64
2022/05/31 02:18:24;;;;;;;4.57;3.50;;;7.70;99.90;;;;;;5110890;28;20039;-64
2022/05/31 02:20:53;;;;;;;4.20;3.30;;;7.70;99.90;;;;;;5110896;28;20044;-64
2022/05/31 02:23:20;;;;;;;4.65;3.58;;;7.70;99.90;;;;;;5111074;28;20050;-64
2022/05/31 02:25:47;;;;;;;3.83;3.20;;;7.60;99.90;;;;;;5112849;28;20043;-64
2022/05/31 02:28:14;;;;;;;6.03;3.67;;;7.60;99.90;;;;;;5105132;28;20055;-64
2022/05/31 02:30:41;;;;;;;4.45;3.40;;;7.70;99.90;;;;;;5114433;28;20037;-64
2022/05/31 02:33:07;;;;;;;5.80;3.28;;;7.70;99.90;;;;;;5109684;28;20035;-64
2022/05/31 02:35:34;;;;;;;6.43;3.35;;;7.70;99.90;;;;;;5114654;28;20043;-64
2022/05/31 02:38:01;;;;;;;4.82;3.20;;;7.80;99.90;;;;;;5114937;28;20104;-64
2022/05/31 02:40:28;;;;;;;4.53;3.25;;;7.80;99.90;;;;;;5113154;28;20047;-64
2022/05/31 02:42:54;;;;;;;4.65;3.53;;;7.80;99.90;;;;;;5099231;28;20046;-64
2022/05/31 02:45:22;;;;;;;6.78;3.55;;;7.90;99.90;;;;;;5097604;28;20047;-64
2022/05/31 02:47:49;;;;;;;5.85;3.47;;;8.00;99.90;;;;;;5092993;28;20500;-64
2022/05/31 02:50:16;;;;;;;4.63;2.97;;;8.00;99.90;;;;;;5093838;28;20036;-63
2022/05/31 02:52:42;;;;;;;4.25;3.65;;;8.10;99.90;;;;;;5101915;28;20116;-64
2022/05/31 02:55:09;;;;;;;4.57;3.03;;;8.10;99.90;;;;;;5082619;28;20044;-64
2022/05/31 02:57:55;;;;;;;4.95;3.42;;;8.10;99.90;;;;;;5094094;28;20265;-63
2022/05/31 03:00:40;;;;;;;3.28;2.83;;;8.00;99.90;;;;;;5101403;28;20659;-64
2022/05/31 03:03:26;;;;;;;5.63;3.47;;;7.90;99.90;;;;;;5114485;28;20088;-64
2022/05/31 03:06:32;;;;;;;5.03;3.70;;;7.80;99.90;;;;;;5070989;28;20183;-64
2022/05/31 03:09:07;;;;;;;8.73;3.92;;;7.80;99.90;;;;;;5069315;28;20187;-63
2022/05/31 03:11:42;;;;;;;6.85;3.78;;;7.70;99.90;;;;;;5090350;27;20131;-64
2022/05/31 03:14:14;;;;;;;4.45;3.75;;;7.60;99.90;;;;;;5114143;28;20435;-64
2022/05/31 03:16:43;;;;;;;4.65;3.90;;;7.60;99.90;;;;;;5112781;28;20052;-64
2022/05/31 03:19:16;;;;;;;7.22;3.65;;;7.60;99.90;;;;;;5106275;28;20047;-64
2022/05/31 03:21:48;;;;;;;6.18;4.03;;;7.60;99.90;;;;;;5093289;28;20051;-64
2022/05/31 03:24:21;;;;;;;7.32;4.10;;;7.60;99.90;;;;;;5112734;28;20557;-64
2022/05/31 03:26:50;;;;;;;4.85;3.72;;;7.60;99.90;;;;;;5113129;28;20488;-63
2022/05/31 03:29:17;;;;;;;4.50;3.85;;;7.60;99.90;;;;;;5103919;28;20032;-63
2022/05/31 03:31:44;;;;;;;4.68;3.60;;;7.70;99.90;;;;;;5112027;28;20047;-64
2022/05/31 03:34:11;;;;;;;6.65;4.13;;;7.80;99.90;;;;;;5112152;28;20040;-64
2022/05/31 03:36:38;;;;;;;6.20;4.38;;;7.80;99.90;;;;;;5105792;28;20043;-64
2022/05/31 03:39:10;;;;;;;5.28;3.33;;;7.90;99.90;;;;;;5103834;28;20047;-64
2022/05/31 03:41:38;;;;;;;4.43;3.42;;;7.90;99.90;;;;;;5111722;28;20062;-64
2022/05/31 03:44:06;;;;;;;;;;;8.00;99.90;;;;;;5112766;28;20044;-64
2022/05/31 03:46:50;;;;;;;3.90;2.58;;;8.00;99.90;;;;;;5112903;28;20284;-64
2022/05/31 03:49:36;;;;;;;4.00;3.45;;;8.10;99.90;;;;;;5113705;28;20046;-64
2022/05/31 03:52:05;;;;;;;7.45;3.33;;;8.20;99.90;;;;;;5111499;28;20036;-64
2022/05/31 03:54:42;;;;;;;3.90;3.20;;;8.20;99.90;;;;;;5092878;28;20039;-63
2022/05/31 03:57:20;;;;;;;7.35;3.15;;;8.30;99.90;;;;;;5113406;28;20051;-64
2022/05/31 04:00:11;;;;;;;3.60;2.75;;;8.30;99.90;;;;;;5111421;28;20318;-63
2022/05/31 04:02:55;;;;;;;7.20;2.75;;;8.30;99.90;;;;;;5101364;28;20547;-64
2022/05/31 04:05:23;;;;;;;2.72;2.53;;;8.40;99.90;;;;;;5096243;28;20509;-64
2022/05/31 04:07:51;;;;;;;3.65;3.08;;;8.50;99.90;;;;;;5091340;28;20051;-64
2022/05/31 04:10:18;;;;;;;3.53;2.83;;;8.50;99.90;;;;;;5091355;28;20400;-64
2022/05/31 04:12:45;;;;;;;3.03;2.50;;;8.60;99.90;;;;;;5083931;28;20058;-64
2022/05/31 04:15:12;;;;;;;3.63;3.13;;;8.60;99.90;;;;;;5112676;28;20036;-64
2022/05/31 04:17:40;;;;;;;6.30;3.28;;;8.60;99.90;;;;;;5086793;27;20043;-64
2022/05/31 04:20:08;;;;;;;3.63;3.13;;;8.60;99.90;;;;;;5115554;27;20059;-64
2022/05/31 04:22:34;;;;;;;4.03;2.85;;;8.60;99.90;;;;;;5089766;28;20039;-64
2022/05/31 04:25:27;;;;;;;7.55;3.38;;;8.60;99.90;;;;;;5101043;28;20148;-64
2022/05/31 04:28:13;;;;;;;3.00;2.60;;;8.70;99.90;;;;;;5110964;28;20555;-64
2022/05/31 04:31:04;;;;;;;4.47;3.15;;;8.70;99.90;;;;;;5103732;28;20066;-64
2022/05/31 04:33:54;;;;;;;2.92;2.45;;;8.80;99.90;;;;;;5082949;28;20139;-64
2022/05/31 04:36:21;;;;;;;;;;;8.80;99.90;;;;;;5086797;28;20499;-63
2022/05/31 04:38:49;;;;;;;3.28;2.70;;;8.80;99.90;;;;;;5092917;28;19942;-64
2022/05/31 04:41:26;;;;;;;3.50;2.50;;;8.80;99.90;;;;;;5093754;28;20586;-63
2022/05/31 04:44:07;;;;;;;4.20;2.38;;;8.90;99.90;;;;;;5079837;28;20520;-64
2022/05/31 04:46:38;;;;;;;3.75;2.80;;;8.90;99.90;;;;;;5093624;28;20089;-64
2022/05/31 04:49:25;;;;;;;3.17;2.58;;;8.80;99.90;;;;;;5098349;28;20048;-63
2022/05/31 04:51:52;;;;;;;5.18;3.00;;;8.90;99.90;;;;;;5074133;28;20500;-64
2022/05/31 04:54:24;;;;;;;4.75;2.70;;;8.80;99.90;;;;;;5098766;28;20040;-64
2022/05/31 04:57:09;;;;;;;4.55;3.20;;;8.80;99.90;;;;;;5090055;27;20039;-63
2022/05/31 04:59:36;;;;;;;6.85;3.05;;;9.00;99.90;;;;;;5081400;28;20486;-64
2022/05/31 05:02:03;;;;;;;3.60;2.95;;;9.10;99.90;;;;;;5101534;28;20599;-63
2022/05/31 05:04:38;;;;;;;5.95;2.70;;;9.20;99.90;;;;;;5110658;28;20032;-64
2022/05/31 05:07:05;;;;;;;2.53;1.92;;;9.30;99.90;;;;;;5079579;28;20051;-64
2022/05/31 05:09:31;;;;;;;5.20;3.50;;;9.40;99.90;;;;;;5082632;28;20040;-64
2022/05/31 05:12:17;;;;;;;4.32;2.35;;;9.50;99.90;;;;;;5091209;28;20042;-64
2022/05/31 05:14:48;;;;;;;3.15;2.25;;;9.50;99.90;;;;;;5073377;28;20407;-64
2022/05/31 05:17:16;;;;;;;4.18;2.50;;;9.50;99.90;;;;;;5091402;28;20043;-64
2022/05/31 05:19:47;;;;;;;3.70;2.67;;;9.30;99.90;;;;;;5083322;28;20634;-64
2022/05/31 05:22:13;;;;;;;5.28;2.67;;;9.30;99.90;;;;;;5087287;28;20046;-64
2022/05/31 05:24:41;;;;;;;;;;;9.40;99.90;;;;;;5090889;28;20047;-64
2022/05/31 05:27:28;;;;;;;3.53;2.33;;;9.50;99.90;;;;;;5098987;28;20462;-64
2022/05/31 05:33:10;;;;;;;2.95;2.20;;;9.80;99.90;;;;;;5090233;28;20044;-64
2022/05/31 05:35:46;;;;;;;2.88;1.80;;;10.00;99.90;;;;;;5078932;28;20411;-64
2022/05/31 05:38:13;;;;;;;3.35;1.67;;;10.10;99.90;;;;;;5089282;28;20075;-64
2022/05/31 05:41:13;;;;;;;8.48;2.40;;;10.20;99.90;;;;;;5107946;28;20048;-64
2022/05/31 05:44:03;;;;;;;3.33;1.80;;;10.20;99.90;;;;;;5091706;28;20102;-64
2022/05/31 05:46:31;;;;;;;8.68;2.00;;;10.10;99.90;;;;;;5092110;28;20420;-64
2022/05/31 05:48:58;;;;;;;2.63;1.85;;;10.00;99.90;;;;;;5085415;28;20051;-63
2022/05/31 05:51:28;;;;;;;4.35;1.90;;;10.10;99.90;;;;;;5088094;28;20093;-64
2022/05/31 05:54:30;;;;;;;2.78;1.73;;;10.10;99.90;;;;;;5028609;28;20056;-64
2022/05/31 05:57:26;;;;;;;4.78;1.80;;;10.20;99.90;;;;;;5106118;28;20457;-64
2022/05/31 06:00:19;;;;;;;2.58;1.90;;;10.30;99.90;;;;;;5105561;28;20100;-64
2022/05/31 06:03:45;;;;;;;3.33;1.52;;;10.40;99.90;;;;;;5119941;22;20044;-63
2022/05/31 06:06:41;;;;;;;2.45;1.83;;;10.60;99.90;;;;;;5058640;28;20036;-63
2022/05/31 06:09:15;;;;;;;2.85;1.60;;;10.80;99.90;;;;;;5074743;28;20044;-63
2022/05/31 06:11:48;;;;;;;2.90;2.03;;;10.90;99.90;;;;;;5071994;28;20070;-63
2022/05/31 06:14:38;;;;;;;4.47;1.52;;;11.00;99.90;;;;;;5069519;28;20129;-63
2022/05/31 06:17:31;;;;;;;2.60;1.83;;;11.10;99.90;;;;;;5056031;28;20068;-63
2022/05/31 06:20:01;;;;;;;5.25;1.95;;;11.20;99.90;;;;;;5053742;28;20454;-63
2022/05/31 06:22:29;;;;;;;6.03;2.30;;;11.30;99.90;;;;;;5048116;28;20090;-62
2022/05/31 06:25:20;;;;;;;4.78;1.77;;;11.50;99.90;;;;;;5073939;28;20486;-63
2022/05/31 06:27:53;;;;;;;6.78;2.10;;;11.70;99.90;;;;;;5052658;28;20473;-63
2022/05/31 06:30:20;;;;;;;3.80;1.65;;;12.10;99.90;;;;;;5050566;28;20136;-63
2022/05/31 06:32:48;;;;;;;4.35;1.40;;;12.40;99.90;;;;;;5056164;28;20052;-63
2022/05/31 06:35:14;;;;;;;2.30;1.55;;;12.80;99.90;;;;;;5073527;28;20203;-63
2022/05/31 06:38:02;;;;;;;2.05;1.60;;;13.10;99.90;;;;;;5065956;28;20137;-63
2022/05/31 06:40:30;;;;;;;2.47;1.83;;;13.30;99.90;;;;;;5055663;28;20044;-64
2022/05/31 06:43:18;;;;;;;3.22;1.60;;;13.40;99.90;;;;;;5055848;28;20048;-64
2022/05/31 06:46:08;;;;;;;2.25;1.42;;;13.50;99.90;;;;;;5073163;28;20219;-63
2022/05/31 06:49:04;;;;;;;1.80;1.30;;;13.40;99.90;;;;;;5066377;28;20068;-63
2022/05/31 06:57:56;;;;;;;1.60;1.50;;;13.80;99.90;;;;;;5065453;28;20163;-64
2022/05/31 07:00:30;;;;;;;3.80;1.83;;;14.30;99.90;;;;;;5071970;28;20048;-64
2022/05/31 07:02:59;;;;;;;2.55;1.48;;;14.50;99.90;;;;;;5055061;28;20056;-64
2022/05/31 07:05:33;;;;;;;3.05;1.73;;;14.10;99.90;;;;;;5055081;28;20079;-64
2022/05/31 07:08:00;;;;;;;2.53;1.70;;;13.90;99.90;;;;;;5047560;28;20448;-64
2022/05/31 07:10:46;;;;;;;5.35;1.73;;;13.90;99.90;;;;;;5073269;28;20059;-64
2022/05/31 07:13:16;;;;;;;3.03;1.80;;;14.00;99.90;;;;;;5073364;28;20629;-63
2022/05/31 07:16:12;;;;;;;3.83;1.88;;;14.00;99.90;;;;;;5018485;28;20056;-63
2022/05/31 07:18:49;;;;;;;2.42;1.70;;;13.90;99.90;;;;;;5073849;28;20048;-64
2022/05/31 07:21:24;;;;;;;3.47;1.90;;;14.00;99.90;;;;;;5054818;28;20075;-64
2022/05/31 07:23:53;;;;;;;2.05;1.60;;;13.80;99.90;;;;;;5054660;28;20052;-64
2022/05/31 07:26:21;;;;;;;2.35;1.45;;;14.10;99.90;;;;;;5046915;28;20132;-64
2022/05/31 07:29:05;;;;;;;4.57;1.65;;;14.20;99.90;;;;;;5055133;28;20059;-64
2022/05/31 07:31:35;;;;;;;6.32;1.60;;;14.70;99.90;;;;;;5054137;28;20040;-64
2022/05/31 07:34:13;;;;;;;4.43;1.73;;;15.20;99.90;;;;;;5046731;28;20048;-64
2022/05/31 07:36:41;;;;;;;1.63;1.40;;;15.40;99.90;;;;;;5055107;28;20471;-64
2022/05/31 07:39:14;;;;;;;2.50;1.45;;;15.50;99.90;;;;;;5054685;28;20370;-64
2022/05/31 07:41:42;;;;;;;2.03;1.63;;;15.60;99.90;;;;;;5052667;28;20072;-64
2022/05/31 07:44:10;;;;;;;;;;;15.30;99.90;;;;;;5047882;28;20092;-64
2022/05/31 07:46:38;;;;;;;3.75;1.27;;;15.50;99.90;;;;;;5054318;28;19959;-64
2022/05/31 07:49:05;;;;;;;2.75;1.60;;;15.50;99.90;;;;;;5053534;28;20043;-64
2022/05/31 07:51:54;;;;;;;1.73;1.38;;;15.50;99.90;;;;;;5046077;28;20049;-64
2022/05/31 07:54:32;;;;;;;2.75;1.27;;;15.50;99.90;;;;;;5072806;28;20044;-64
2022/05/31 08:00:12;;;;;;;2.17;1.40;;;15.30;99.90;;;;;;5060365;28;20045;-64
2022/05/31 08:02:45;;;;;;;4.10;1.40;;;15.20;99.90;;;;;;5052732;28;20053;-64
2022/05/31 08:05:13;;;;;;;1.88;1.38;;;15.20;99.90;;;;;;5052336;28;20049;-64
2022/05/31 08:07:39;;;;;;;5.90;1.70;;;15.40;99.90;;;;;;5066950;28;20040;-64
2022/05/31 08:10:08;;;;;;;2.25;1.50;;;15.40;99.90;;;;;;5064635;28;20041;-64
2022/05/31 08:12:35;;;;;;;3.17;1.60;;;15.60;99.90;;;;;;5072117;28;20045;-63
2022/05/31 08:15:04;;;;;;;2.70;1.30;;;15.60;99.90;;;;;;5067501;28;20037;-64
2022/05/31 08:17:30;;;;;;;3.08;1.38;;;15.90;99.90;;;;;;5068356;28;20086;-64
2022/05/31 08:19:57;;;;;;;1.55;1.20;;;16.10;99.90;;;;;;5071804;28;20041;-64
2022/05/31 08:22:24;;;;;;;1.63;1.50;;;16.20;99.90;;;;;;5070862;28;20106;-64
2022/05/31 08:24:50;;;;;;;2.95;1.70;;;16.20;99.90;;;;;;5063702;28;20037;-64
2022/05/31 08:27:17;;;;;;;4.18;1.75;;;16.20;99.90;;;;;;5071886;28;20048;-64
2022/05/31 08:29:44;;;;;;;2.13;1.67;;;16.00;99.90;;;;;;5065917;28;20040;-64
2022/05/31 08:32:11;;;;;;;4.78;1.48;;;16.00;99.90;;;;;;5062855;28;20048;-64
2022/05/31 08:34:37;;;;;;;3.55;1.45;;;16.30;99.90;;;;;;5071858;28;20488;-64
2022/05/31 08:37:04;;;;;;;3.22;1.50;;;16.30;99.90;;;;;;5071776;28;20497;-64
2022/05/31 08:39:31;;;;;;;1.30;1.10;;;16.40;99.90;;;;;;5062994;28;20045;-64
2022/05/31 08:42:10;;;;;;;3.10;1.23;;;16.60;99.90;;;;;;5051367;28;20044;-64
2022/05/31 08:44:56;;;;;;;2.15;1.48;;;17.20;99.90;;;;;;5051665;28;20541;-64
2022/05/31 08:47:36;;;;;;;3.33;1.30;;;17.10;99.90;;;;;;5059797;28;20048;-64
2022/05/31 08:53:21;;;;;;;2.55;1.65;;;16.80;99.90;;;;;;5071449;28;20405;-64
2022/05/31 08:58:55;;;;;;;1.60;1.50;;;16.70;99.90;;;;;;5043015;28;20068;-64
2022/05/31 09:01:28;;;;;;;5.10;1.70;;;16.70;99.90;;;;;;5071044;28;20054;-64
2022/05/31 09:04:12;;;;;;;3.40;1.52;;;16.80;99.90;;;;;;5071202;28;20048;-63
2022/05/31 09:06:49;;;;;;;1.85;1.30;;;17.20;99.90;;;;;;5068106;28;20106;-64
2022/05/31 09:09:21;;;;;;;3.85;1.63;;;17.50;99.90;;;;;;5065758;28;20049;-64
2022/05/31 09:11:48;;;;;;;4.65;1.42;;;17.90;99.90;;;;;;5070862;28;20455;-64
2022/05/31 09:14:22;;;;;;;1.30;1.17;;;18.10;99.90;;;;;;5070972;28;20032;-64
2022/05/31 09:17:11;;;;;;;5.57;2.03;;;18.00;99.90;;;;;;5061580;28;20489;-63
2022/05/31 09:19:42;;;;;;;3.80;1.40;;;18.20;99.90;;;;;;5071261;28;20404;-64
2022/05/31 09:22:10;;;;;;;4.35;1.50;;;18.60;99.90;;;;;;5070804;28;20653;-64
2022/05/31 09:24:40;;;;;;;1.98;1.77;;;18.80;99.90;;;;;;5064275;28;20088;-64
2022/05/31 09:27:21;;;;;;;3.60;1.50;;;18.90;99.90;;;;;;5062834;28;20051;-64
2022/05/31 09:30:15;;;;;;;4.38;1.30;;;18.80;99.90;;;;;;5071137;28;20041;-63
2022/05/31 09:33:00;;;;;;;2.28;1.25;;;18.60;99.90;;;;;;5071134;28;20102;-64
2022/05/31 09:35:27;;;;;;;3.63;1.52;;;18.80;99.90;;;;;;5072622;28;20049;-64
2022/05/31 09:38:00;;;;;;;;;;;18.90;99.90;;;;;;5067229;28;20053;-63
2022/05/31 09:40:45;;;;;;;2.97;1.38;;;18.80;99.90;;;;;;5075093;28;20330;-64
2022/05/31 09:43:21;;;;;;;2.85;1.88;;;18.90;99.90;;;;;;5075025;28;20037;-63
2022/05/31 09:46:14;;;;;;;2.20;1.30;;;18.80;99.90;;;;;;5066321;28;20045;-63
2022/05/31 09:48:51;;;;;;;4.22;1.45;;;18.60;99.90;;;;;;5075080;28;20394;-64
2022/05/31 09:51:24;;;;;;;3.33;1.25;;;18.70;99.90;;;;;;5074548;28;20511;-64
2022/05/31 09:57:10;;;;;;;3.50;1.50;;;18.70;99.90;;;;;;5075002;28;20532;-63
2022/05/31 10:00:16;;;;;;;3.78;1.40;;;18.80;99.90;;;;;;5057582;28;20059;-63
2022/05/31 10:03:03;;;;;;;2.00;1.20;;;19.10;99.90;;;;;;5065539;28;20400;-63
2022/05/31 10:05:30;;;;;;;4.57;1.27;;;19.30;99.90;;;;;;5074634;28;20073;-64
2022/05/31 10:07:57;;;;;;;2.00;1.13;;;19.50;99.90;;;;;;5074628;28;20048;-64
2022/05/31 10:10:35;;;;;;;3.40;1.27;;;19.60;99.90;;;;;;5065940;28;20032;-64
2022/05/31 10:13:08;;;;;;;1.40;1.20;;;19.50;99.90;;;;;;5065572;28;20492;-64
2022/05/31 10:15:50;;;;;;;1.90;1.60;;;19.30;99.90;;;;;;5074636;28;20045;-64
2022/05/31 10:18:29;;;;;;;3.55;1.30;;;19.60;99.90;;;;;;5069710;28;20401;-64
2022/05/31 10:21:02;;;;;;;4.50;1.30;;;19.90;99.90;;;;;;5065341;28;20040;-64
2022/05/31 10:23:37;;;;;;;1.75;1.25;;;20.10;99.90;;;;;;5074392;28;20051;-64
2022/05/31 10:26:28;;;;;;;2.15;1.20;;;20.30;99.90;;;;;;5074437;28;20044;-63
2022/05/31 10:29:25;;;;;;;2.80;1.17;;;20.50;99.90;;;;;;5066986;28;20029;-63
2022/05/31 10:32:48;;;;;;;2.13;1.20;;;20.50;99.90;;;;;;5052773;28;20052;-64
2022/05/31 10:35:28;;;;;;;1.90;1.40;;;20.50;99.90;;;;;;5034285;28;20053;-64
2022/05/31 10:38:16;;;;;;;0.95;0.95;;;20.60;99.90;;;;;;5065344;28;20504;-64
2022/05/31 10:41:04;;;;;;;2.08;1.10;;;20.80;99.90;;;;;;5071532;28;20600;-64
2022/05/31 10:43:42;;;;;;;2.42;1.50;;;20.90;99.90;;;;;;5074005;28;20566;-64
2022/05/31 10:46:14;;;;;;;;;;;21.20;99.90;;;;;;5073384;28;20106;-64
2022/05/31 10:48:53;;;;;;;1.70;1.00;;;21.40;99.90;;;;;;5065285;28;20488;-64
2022/05/31 10:51:47;;;;;;;1.73;1.15;;;21.50;99.90;;;;;;5073535;28;20044;-64
2022/05/31 10:54:27;;;;;;;1.27;1.17;;;21.70;99.90;;;;;;5073853;28;20063;-63
2022/05/31 10:57:11;;;;;;;2.38;1.15;;;21.70;99.90;;;;;;5070063;28;20047;-64
2022/05/31 10:59:52;;;;;;;1.88;1.10;;;21.90;99.90;;;;;;5070859;28;20040;-64
2022/05/31 11:02:41;;;;;;;3.47;1.25;;;22.00;99.90;;;;;;5073673;28;20511;-64
2022/05/31 11:05:09;;;;;;;;;;;22.30;99.90;;;;;;5073754;28;20051;-64
2022/05/31 11:11:28;;;;;;;;;;;22.40;99.90;;;;;;5065613;28;19921;-64
2022/05/31 11:13:50;;;;;;;1.30;0.90;;;22.70;99.90;;;;;;5072943;28;20040;-64
2022/05/31 11:16:37;;;;;;;1.30;1.20;;;22.90;99.90;;;;;;5063342;28;20114;-64
2022/05/31 11:19:24;;;;;;;3.22;1.20;;;22.50;99.90;;;;;;5036364;28;20061;-64
2022/05/31 11:22:18;;;;;;;1.63;1.08;;;22.60;99.80;;;;;;5070095;28;20052;-64
2022/05/31 11:24:59;;;;;;;1.30;0.98;;;22.90;99.90;;;;;;5072068;28;20048;-64
2022/05/31 11:27:57;;;;;;;1.35;0.98;;;23.20;99.20;;;;;;5054449;28;20440;-64
2022/05/31 11:30:34;;;;;;;2.30;1.30;;;23.40;99.90;;;;;;5072098;28;20055;-64
2022/05/31 11:33:19;;;;;;;1.73;1.00;;;23.40;98.00;;;;;;5070019;28;20110;-64
2022/05/31 11:35:59;;;;;;;3.72;1.10;;;23.10;97.00;;;;;;5072442;28;20041;-64
2022/05/31 11:38:37;;;;;;;1.20;1.10;;;23.30;97.30;;;;;;5072454;28;20550;-64
2022/05/31 11:41:27;;;;;;;1.17;1.08;;;23.40;97.60;;;;;;5072020;28;20037;-64
2022/05/31 11:44:34;;;;;;;1.65;1.00;;;23.20;97.80;;;;;;5069672;28;20685;-64
2022/05/31 11:47:37;;;;;;;2.78;0.90;;;23.30;95.30;;;;;;5069820;28;20036;-65
2022/05/31 11:50:21;;;;;;;1.00;0.90;;;23.60;94.80;;;;;;5069688;28;20033;-65
2022/05/31 11:53:15;;;;;;;5.13;1.00;;;23.70;94.40;;;;;;5069972;28;20036;-65
2022/05/31 11:55:50;;;;;;;2.72;1.10;;;24.00;91.90;;;;;;5070060;28;20068;-64
2022/05/31 11:58:35;;;;;;;3.80;1.10;;;24.60;95.60;;;;;;5071201;28;20044;-64
2022/05/31 12:01:02;;;;;;;4.15;1.05;;;24.80;94.90;;;;;;5068681;28;20040;-65
2022/05/31 12:03:34;;;;;;;0.93;0.85;;;25.00;93.50;;;;;;5088115;22;20048;-63
2022/05/31 12:06:36;;;;;;;2.20;1.02;;;24.90;91.50;;;;;;5076445;28;20048;-63
2022/05/31 12:09:14;;;;;;;3.25;1.00;;;24.90;87.80;;;;;;5078978;28;20055;-63
2022/05/31 12:11:52;;;;;;;1.17;0.90;;;24.50;89.40;;;;;;5077655;28;20493;-63
2022/05/31 12:14:22;;;;;;;2.72;0.77;;;24.20;90.20;;;;;;5071601;28;20451;-63
2022/05/31 12:16:50;;;;;;;1.10;1.00;;;24.10;92.40;;;;;;5089624;28;20044;-63
2022/05/31 12:19:51;;;;;;;0.93;0.80;;;23.70;91.50;;;;;;5082584;28;20044;-63
2022/05/31 12:22:25;;;;;;;1.00;0.90;;;23.30;91.60;;;;;;5080125;28;20028;-63
2022/05/31 12:24:57;;;;;;;3.72;1.40;;;23.40;93.50;;;;;;5087407;28;20494;-63
2022/05/31 12:27:36;;;;;;;2.08;1.02;;;23.90;96.70;;;;;;5092284;28;20059;-63
2022/05/31 12:30:17;;;;;;;4.90;1.10;;;24.20;96.10;;;;;;5066330;28;20068;-64
2022/05/31 12:32:46;;;;;;;5.45;1.10;;;24.60;96.40;;;;;;5072051;28;20403;-64
2022/05/31 12:35:31;;;;;;;3.25;1.58;;;24.60;96.10;;;;;;5071960;28;20067;-63
2022/05/31 12:38:00;;;;;;;1.42;1.10;;;24.00;95.20;;;;;;5067273;28;20048;-64
2022/05/31 12:40:33;;;;;;;2.92;1.10;;;23.60;97.10;;;;;;5071498;28;20045;-64
2022/05/31 12:43:01;;;;;;;4.43;1.40;;;23.20;97.00;;;;;;5071793;28;20045;-64
2022/05/31 12:45:34;;;;;;;2.17;1.10;;;23.10;97.50;;;;;;5066075;28;20047;-63
2022/05/31 12:48:12;;;;;;;3.60;1.27;;;22.80;97.00;;;;;;5063858;28;20059;-63
2022/05/31 12:50:42;;;;;;;7.57;1.48;;;22.70;97.80;;;;;;5071447;28;20051;-63
2022/05/31 12:55:38;;;;;;;2.72;1.30;;;22.40;98.20;;;;;;5068896;28;20036;-63
2022/05/31 12:58:35;;;;;;;1.85;1.10;;;22.00;97.90;;;;;;5071352;28;20752;-66
2022/05/31 13:01:10;;;;;;;3.13;1.15;;;22.10;98.90;;;;;;5071184;28;20051;-66
2022/05/31 13:03:42;;;;;;;3.65;1.40;;;22.30;99.10;;;;;;5068524;28;20059;-64
2022/05/31 13:06:15;;;;;;;4.05;1.20;;;22.20;99.30;;;;;;5071366;28;20040;-66
2022/05/31 13:08:55;;;;;;;2.30;1.27;;;21.90;98.10;;;;;;5071370;28;20497;-66
2022/05/31 13:20:11;;;;;;;3.90;1.20;;;22.40;97.10;;;;;;5063368;28;20043;-66
2022/05/31 13:22:42;;;;;;;7.25;1.27;;;22.20;95.30;;;;;;5071153;28;20041;-64
2022/05/31 13:25:23;;;;;;;3.95;1.42;;;22.10;95.60;;;;;;5071417;28;20049;-63
2022/05/31 13:27:53;;;;;;;3.78;1.20;;;22.10;96.10;;;;;;5062405;28;20060;-63
2022/05/31 13:30:23;;;;;;;3.92;1.23;;;22.10;96.40;;;;;;5059627;28;20044;-63
2022/05/31 13:32:50;;;;;;;2.17;1.05;;;22.10;95.80;;;;;;5079661;28;20041;-64
2022/05/31 13:35:20;;;;;;;;;;;22.10;95.90;;;;;;5076389;28;20044;-64
2022/05/31 13:37:53;;;;;;;1.83;1.10;;;22.00;95.40;;;;;;5080260;28;19921;-64
2022/05/31 13:40:22;;;;;;;2.53;1.20;;;22.10;95.80;;;;;;5060261;28;20534;-64
2022/05/31 13:42:50;;;;;;;1.40;1.05;;;22.10;95.20;;;;;;5078264;28;20378;-64
2022/05/31 13:45:20;;;;;;;3.50;1.35;;;22.40;95.00;;;;;;5073406;28;20040;-64
2022/05/31 13:47:50;;;;;;;2.20;1.10;;;22.70;94.60;;;;;;5079848;28;20500;-64
2022/05/31 13:50:24;;;;;;;1.88;1.00;;;22.60;94.90;;;;;;5077809;28;20047;-64
2022/05/31 13:52:52;;;;;;;3.30;1.10;;;22.30;94.00;;;;;;5075041;28;20036;-64
2022/05/31 13:55:23;;;;;;;2.15;1.25;;;22.00;94.60;;;;;;5080387;28;20037;-64
2022/05/31 13:57:53;;;;;;;2.13;1.08;;;21.90;96.00;;;;;;5079634;28;20041;-64
2022/05/31 14:00:42;;;;;;;1.85;1.13;;;22.00;96.60;;;;;;5075872;28;20041;-64
2022/05/31 14:03:21;;;;;;;5.15;1.17;;;21.90;95.50;;;;;;5078993;28;20049;-64
2022/05/31 14:05:59;;;;;;;5.50;1.33;;;21.90;95.90;;;;;;5079673;28;20039;-64
2022/05/31 14:08:33;;;;;;;;;;;21.90;95.90;;;;;;5075706;28;20056;-64
2022/05/31 14:11:01;;;;;;;3.33;1.15;;;22.10;95.40;;;;;;5077791;28;19943;-64
2022/05/31 14:13:30;;;;;;;3.72;1.30;;;22.30;94.70;;;;;;5070594;28;20080;-64
2022/05/31 14:16:09;;;;;;;3.50;1.52;;;22.70;94.90;;;;;;5070778;28;20055;-64
2022/05/31 14:18:41;;;;;;;6.13;1.63;;;22.80;94.10;;;;;;5070675;28;20407;-64
2022/05/31 14:21:08;;;;;;;7.35;1.27;;;22.60;93.80;;;;;;5078006;28;20093;-64